sensor_id;sensor_type;location;lat;lon;timestamp;P1;durP1;ratioP1;P2;durP2;ratioP2
23046;SDS011;11691;51.462;6.902;2023-04-06T00:01:09;11.20;;;6.07;;
23046;SDS011;11691;51.462;6.902;2023-04-06T00:03:36;12.73;;;5.83;;
23046;SDS011;11691;51.462;6.902;2023-04-06T00:06:02;9.13;;;6.00;;
23046;SDS011;11691;51.462;6.902;2023-04-06T00:08:28;9.40;;;5.87;;
23046;SDS011;11691;51.462;6.902;2023-04-06T00:10:54;9.93;;;6.10;;
23046;SDS011;11691;51.462;6.902;2023-04-06T00:13:20;10.93;;;6.23;;
23046;SDS011;11691;51.462;6.902;2023-04-06T00:15:46;8.87;;;5.40;;
23046;SDS011;11691;51.462;6.902;2023-04-06T00:18:12;10.40;;;5.50;;
23046;SDS011;11691;51.462;6.902;2023-04-06T00:20:38;10.00;;;5.70;;
23046;SDS011;11691;51.462;6.902;2023-04-06T00:23:05;9.63;;;6.03;;
23046;SDS011;11691;51.462;6.902;2023-04-06T00:25:31;8.30;;;5.33;;
23046;SDS011;11691;51.462;6.902;2023-04-06T00:27:57;10.10;;;6.20;;
23046;SDS011;11691;51.462;6.902;2023-04-06T00:30:23;10.60;;;6.50;;
23046;SDS011;11691;51.462;6.902;2023-04-06T00:32:49;11.10;;;6.00;;
23046;SDS011;11691;51.462;6.902;2023-04-06T00:35:15;9.20;;;5.47;;
23046;SDS011;11691;51.462;6.902;2023-04-06T00:37:41;9.00;;;5.60;;
23046;SDS011;11691;51.462;6.902;2023-04-06T00:40:07;7.50;;;5.17;;
23046;SDS011;11691;51.462;6.902;2023-04-06T00:42:34;7.93;;;5.20;;
23046;SDS011;11691;51.462;6.902;2023-04-06T00:45:00;12.07;;;5.90;;
23046;SDS011;11691;51.462;6.902;2023-04-06T00:47:26;10.40;;;5.40;;
23046;SDS011;11691;51.462;6.902;2023-04-06T00:49:53;10.10;;;5.83;;
23046;SDS011;11691;51.462;6.902;2023-04-06T00:52:19;8.87;;;5.23;;
23046;SDS011;11691;51.462;6.902;2023-04-06T00:54:45;11.07;;;5.70;;
23046;SDS011;11691;51.462;6.902;2023-04-06T00:57:12;8.60;;;5.97;;
23046;SDS011;11691;51.462;6.902;2023-04-06T00:59:38;9.63;;;5.53;;
23046;SDS011;11691;51.462;6.902;2023-04-06T01:02:05;10.17;;;5.73;;
23046;SDS011;11691;51.462;6.902;2023-04-06T01:04:31;9.27;;;5.77;;
23046;SDS011;11691;51.462;6.902;2023-04-06T01:06:58;12.80;;;6.20;;
23046;SDS011;11691;51.462;6.902;2023-04-06T01:09:24;9.47;;;6.03;;
23046;SDS011;11691;51.462;6.902;2023-04-06T01:11:50;11.67;;;5.67;;
23046;SDS011;11691;51.462;6.902;2023-04-06T01:14:16;10.23;;;6.40;;
23046;SDS011;11691;51.462;6.902;2023-04-06T01:16:42;8.80;;;6.00;;
23046;SDS011;11691;51.462;6.902;2023-04-06T01:19:08;11.70;;;6.40;;
23046;SDS011;11691;51.462;6.902;2023-04-06T01:21:35;10.30;;;6.93;;
23046;SDS011;11691;51.462;6.902;2023-04-06T01:24:02;15.07;;;7.00;;
23046;SDS011;11691;51.462;6.902;2023-04-06T01:26:28;12.40;;;6.70;;
23046;SDS011;11691;51.462;6.902;2023-04-06T01:28:54;9.60;;;6.77;;
23046;SDS011;11691;51.462;6.902;2023-04-06T01:31:20;9.80;;;6.67;;
23046;SDS011;11691;51.462;6.902;2023-04-06T01:33:47;10.40;;;7.00;;
23046;SDS011;11691;51.462;6.902;2023-04-06T01:36:13;11.20;;;6.63;;
23046;SDS011;11691;51.462;6.902;2023-04-06T01:38:39;10.83;;;6.63;;
23046;SDS011;11691;51.462;6.902;2023-04-06T01:41:06;9.50;;;6.57;;
23046;SDS011;11691;51.462;6.902;2023-04-06T01:43:32;13.10;;;7.03;;
23046;SDS011;11691;51.462;6.902;2023-04-06T01:45:58;11.87;;;6.87;;
23046;SDS011;11691;51.462;6.902;2023-04-06T01:48:25;15.57;;;7.13;;
23046;SDS011;11691;51.462;6.902;2023-04-06T01:50:53;11.90;;;6.93;;
23046;SDS011;11691;51.462;6.902;2023-04-06T01:53:19;10.67;;;6.70;;
23046;SDS011;11691;51.462;6.902;2023-04-06T01:55:46;12.53;;;7.30;;
23046;SDS011;11691;51.462;6.902;2023-04-06T01:58:12;12.73;;;7.53;;
23046;SDS011;11691;51.462;6.902;2023-04-06T02:00:38;12.17;;;7.53;;
23046;SDS011;11691;51.462;6.902;2023-04-06T02:03:04;10.90;;;6.83;;
23046;SDS011;11691;51.462;6.902;2023-04-06T02:05:31;15.50;;;7.80;;
23046;SDS011;11691;51.462;6.902;2023-04-06T02:08:02;13.13;;;7.97;;
23046;SDS011;11691;51.462;6.902;2023-04-06T02:10:28;14.30;;;8.00;;
23046;SDS011;11691;51.462;6.902;2023-04-06T02:12:54;13.07;;;7.93;;
23046;SDS011;11691;51.462;6.902;2023-04-06T02:15:20;12.53;;;7.80;;
23046;SDS011;11691;51.462;6.902;2023-04-06T02:17:46;13.97;;;8.40;;
23046;SDS011;11691;51.462;6.902;2023-04-06T02:20:12;13.70;;;8.03;;
23046;SDS011;11691;51.462;6.902;2023-04-06T02:22:38;14.70;;;7.90;;
23046;SDS011;11691;51.462;6.902;2023-04-06T02:25:05;13.73;;;8.20;;
23046;SDS011;11691;51.462;6.902;2023-04-06T02:27:31;13.17;;;8.00;;
23046;SDS011;11691;51.462;6.902;2023-04-06T02:29:57;11.63;;;7.53;;
23046;SDS011;11691;51.462;6.902;2023-04-06T02:32:23;13.43;;;7.87;;
23046;SDS011;11691;51.462;6.902;2023-04-06T02:34:49;11.70;;;7.97;;
23046;SDS011;11691;51.462;6.902;2023-04-06T02:37:15;13.57;;;8.37;;
23046;SDS011;11691;51.462;6.902;2023-04-06T02:39:41;19.23;;;8.23;;
23046;SDS011;11691;51.462;6.902;2023-04-06T02:42:07;14.27;;;8.23;;
23046;SDS011;11691;51.462;6.902;2023-04-06T02:44:34;14.80;;;8.97;;
23046;SDS011;11691;51.462;6.902;2023-04-06T02:47:00;16.43;;;9.33;;
23046;SDS011;11691;51.462;6.902;2023-04-06T02:49:26;14.17;;;8.17;;
23046;SDS011;11691;51.462;6.902;2023-04-06T02:51:52;14.97;;;8.80;;
23046;SDS011;11691;51.462;6.902;2023-04-06T02:54:18;20.77;;;8.80;;
23046;SDS011;11691;51.462;6.902;2023-04-06T02:56:44;17.87;;;8.90;;
23046;SDS011;11691;51.462;6.902;2023-04-06T02:59:10;17.40;;;8.90;;
23046;SDS011;11691;51.462;6.902;2023-04-06T03:01:36;17.50;;;9.47;;
23046;SDS011;11691;51.462;6.902;2023-04-06T03:04:02;16.93;;;8.90;;
23046;SDS011;11691;51.462;6.902;2023-04-06T03:06:28;16.27;;;8.40;;
23046;SDS011;11691;51.462;6.902;2023-04-06T03:08:55;15.30;;;9.13;;
23046;SDS011;11691;51.462;6.902;2023-04-06T03:11:21;17.07;;;9.43;;
23046;SDS011;11691;51.462;6.902;2023-04-06T03:13:47;14.87;;;9.23;;
23046;SDS011;11691;51.462;6.902;2023-04-06T03:16:13;18.23;;;9.40;;
23046;SDS011;11691;51.462;6.902;2023-04-06T03:18:39;14.60;;;8.63;;
23046;SDS011;11691;51.462;6.902;2023-04-06T03:21:05;13.87;;;8.13;;
23046;SDS011;11691;51.462;6.902;2023-04-06T03:23:31;13.30;;;8.23;;
23046;SDS011;11691;51.462;6.902;2023-04-06T03:25:57;14.67;;;8.03;;
23046;SDS011;11691;51.462;6.902;2023-04-06T03:28:23;14.17;;;7.87;;
23046;SDS011;11691;51.462;6.902;2023-04-06T03:30:49;15.73;;;8.30;;
23046;SDS011;11691;51.462;6.902;2023-04-06T03:33:15;15.33;;;8.10;;
23046;SDS011;11691;51.462;6.902;2023-04-06T03:35:41;16.77;;;7.57;;
23046;SDS011;11691;51.462;6.902;2023-04-06T03:38:07;11.57;;;7.90;;
23046;SDS011;11691;51.462;6.902;2023-04-06T03:40:33;12.83;;;7.80;;
23046;SDS011;11691;51.462;6.902;2023-04-06T03:42:59;14.20;;;8.13;;
23046;SDS011;11691;51.462;6.902;2023-04-06T03:45:25;14.50;;;7.53;;
23046;SDS011;11691;51.462;6.902;2023-04-06T03:47:51;13.80;;;7.80;;
23046;SDS011;11691;51.462;6.902;2023-04-06T03:50:18;13.47;;;7.43;;
23046;SDS011;11691;51.462;6.902;2023-04-06T03:52:44;11.27;;;7.47;;
23046;SDS011;11691;51.462;6.902;2023-04-06T03:55:10;15.77;;;7.63;;
23046;SDS011;11691;51.462;6.902;2023-04-06T03:57:36;13.47;;;7.70;;
23046;SDS011;11691;51.462;6.902;2023-04-06T04:00:02;19.10;;;8.17;;
23046;SDS011;11691;51.462;6.902;2023-04-06T04:02:29;16.30;;;7.53;;
23046;SDS011;11691;51.462;6.902;2023-04-06T04:04:55;14.03;;;7.20;;
23046;SDS011;11691;51.462;6.902;2023-04-06T04:07:21;11.70;;;7.17;;
23046;SDS011;11691;51.462;6.902;2023-04-06T04:09:47;11.00;;;6.93;;
23046;SDS011;11691;51.462;6.902;2023-04-06T04:12:13;13.80;;;7.83;;
23046;SDS011;11691;51.462;6.902;2023-04-06T04:14:41;13.17;;;8.00;;
23046;SDS011;11691;51.462;6.902;2023-04-06T04:17:08;12.60;;;7.07;;
23046;SDS011;11691;51.462;6.902;2023-04-06T04:19:35;13.23;;;7.53;;
23046;SDS011;11691;51.462;6.902;2023-04-06T04:22:01;17.10;;;7.77;;
23046;SDS011;11691;51.462;6.902;2023-04-06T04:24:29;11.77;;;7.30;;
23046;SDS011;11691;51.462;6.902;2023-04-06T04:26:55;11.70;;;7.20;;
23046;SDS011;11691;51.462;6.902;2023-04-06T04:29:22;11.50;;;7.27;;
23046;SDS011;11691;51.462;6.902;2023-04-06T04:31:48;16.50;;;7.60;;
23046;SDS011;11691;51.462;6.902;2023-04-06T04:34:14;11.40;;;6.87;;
23046;SDS011;11691;51.462;6.902;2023-04-06T04:36:40;14.87;;;7.43;;
23046;SDS011;11691;51.462;6.902;2023-04-06T04:39:07;11.33;;;6.90;;
23046;SDS011;11691;51.462;6.902;2023-04-06T04:41:33;11.20;;;7.10;;
23046;SDS011;11691;51.462;6.902;2023-04-06T04:44:00;12.33;;;6.90;;
23046;SDS011;11691;51.462;6.902;2023-04-06T04:46:26;12.03;;;7.00;;
23046;SDS011;11691;51.462;6.902;2023-04-06T04:48:52;12.53;;;6.30;;
23046;SDS011;11691;51.462;6.902;2023-04-06T04:51:18;10.23;;;6.07;;
23046;SDS011;11691;51.462;6.902;2023-04-06T04:53:45;11.10;;;6.40;;
23046;SDS011;11691;51.462;6.902;2023-04-06T04:56:11;12.23;;;6.43;;
23046;SDS011;11691;51.462;6.902;2023-04-06T04:58:37;10.87;;;6.70;;
23046;SDS011;11691;51.462;6.902;2023-04-06T05:01:03;9.30;;;6.13;;
23046;SDS011;11691;51.462;6.902;2023-04-06T05:03:29;10.60;;;6.50;;
23046;SDS011;11691;51.462;6.902;2023-04-06T05:05:55;10.20;;;6.40;;
23046;SDS011;11691;51.462;6.902;2023-04-06T05:08:21;9.83;;;6.33;;
23046;SDS011;11691;51.462;6.902;2023-04-06T05:10:47;11.30;;;6.23;;
23046;SDS011;11691;51.462;6.902;2023-04-06T05:13:14;11.73;;;6.20;;
23046;SDS011;11691;51.462;6.902;2023-04-06T05:15:40;9.50;;;6.30;;
23046;SDS011;11691;51.462;6.902;2023-04-06T05:18:07;11.77;;;7.07;;
23046;SDS011;11691;51.462;6.902;2023-04-06T05:20:33;10.03;;;6.60;;
23046;SDS011;11691;51.462;6.902;2023-04-06T05:22:59;9.87;;;5.50;;
23046;SDS011;11691;51.462;6.902;2023-04-06T05:25:25;10.20;;;6.10;;
23046;SDS011;11691;51.462;6.902;2023-04-06T05:27:52;11.67;;;6.67;;
23046;SDS011;11691;51.462;6.902;2023-04-06T05:30:18;8.40;;;5.63;;
23046;SDS011;11691;51.462;6.902;2023-04-06T05:32:44;8.70;;;6.20;;
23046;SDS011;11691;51.462;6.902;2023-04-06T05:35:10;12.23;;;6.23;;
23046;SDS011;11691;51.462;6.902;2023-04-06T05:37:37;8.13;;;5.27;;
23046;SDS011;11691;51.462;6.902;2023-04-06T05:40:03;12.37;;;6.23;;
23046;SDS011;11691;51.462;6.902;2023-04-06T05:42:39;9.93;;;5.70;;
23046;SDS011;11691;51.462;6.902;2023-04-06T05:45:07;7.53;;;5.10;;
23046;SDS011;11691;51.462;6.902;2023-04-06T05:47:34;10.57;;;5.77;;
23046;SDS011;11691;51.462;6.902;2023-04-06T05:50:00;10.33;;;5.60;;
23046;SDS011;11691;51.462;6.902;2023-04-06T05:52:26;11.57;;;5.80;;
23046;SDS011;11691;51.462;6.902;2023-04-06T05:54:52;10.70;;;6.20;;
23046;SDS011;11691;51.462;6.902;2023-04-06T05:57:18;10.33;;;6.10;;
23046;SDS011;11691;51.462;6.902;2023-04-06T05:59:44;8.77;;;5.30;;
23046;SDS011;11691;51.462;6.902;2023-04-06T06:02:10;9.27;;;5.77;;
23046;SDS011;11691;51.462;6.902;2023-04-06T06:04:36;10.57;;;5.60;;
23046;SDS011;11691;51.462;6.902;2023-04-06T06:07:02;14.03;;;5.83;;
23046;SDS011;11691;51.462;6.902;2023-04-06T06:09:28;14.13;;;6.20;;
23046;SDS011;11691;51.462;6.902;2023-04-06T06:11:55;8.30;;;5.57;;
23046;SDS011;11691;51.462;6.902;2023-04-06T06:14:21;10.43;;;6.10;;
23046;SDS011;11691;51.462;6.902;2023-04-06T06:16:47;9.20;;;5.53;;
23046;SDS011;11691;51.462;6.902;2023-04-06T06:19:13;7.30;;;5.67;;
23046;SDS011;11691;51.462;6.902;2023-04-06T06:21:39;10.90;;;5.67;;
23046;SDS011;11691;51.462;6.902;2023-04-06T06:24:06;12.63;;;5.73;;
23046;SDS011;11691;51.462;6.902;2023-04-06T06:26:32;10.10;;;5.80;;
23046;SDS011;11691;51.462;6.902;2023-04-06T06:29:00;11.93;;;6.10;;
23046;SDS011;11691;51.462;6.902;2023-04-06T06:31:26;9.57;;;5.73;;
23046;SDS011;11691;51.462;6.902;2023-04-06T06:33:52;10.43;;;5.33;;
23046;SDS011;11691;51.462;6.902;2023-04-06T06:36:18;7.50;;;5.17;;
23046;SDS011;11691;51.462;6.902;2023-04-06T06:38:44;8.43;;;5.30;;
23046;SDS011;11691;51.462;6.902;2023-04-06T06:41:11;8.30;;;5.53;;
23046;SDS011;11691;51.462;6.902;2023-04-06T06:43:37;10.47;;;5.53;;
23046;SDS011;11691;51.462;6.902;2023-04-06T06:46:03;9.30;;;5.27;;
23046;SDS011;11691;51.462;6.902;2023-04-06T06:48:30;10.83;;;5.87;;
23046;SDS011;11691;51.462;6.902;2023-04-06T06:50:56;8.23;;;5.47;;
23046;SDS011;11691;51.462;6.902;2023-04-06T06:53:23;10.17;;;5.47;;
23046;SDS011;11691;51.462;6.902;2023-04-06T06:55:49;9.60;;;5.67;;
23046;SDS011;11691;51.462;6.902;2023-04-06T06:58:17;9.50;;;5.70;;
23046;SDS011;11691;51.462;6.902;2023-04-06T07:00:43;10.17;;;5.80;;
23046;SDS011;11691;51.462;6.902;2023-04-06T07:03:09;10.80;;;5.40;;
23046;SDS011;11691;51.462;6.902;2023-04-06T07:05:35;8.50;;;5.30;;
23046;SDS011;11691;51.462;6.902;2023-04-06T07:08:01;14.23;;;6.17;;
23046;SDS011;11691;51.462;6.902;2023-04-06T07:10:27;11.77;;;6.00;;
23046;SDS011;11691;51.462;6.902;2023-04-06T07:12:53;12.07;;;5.73;;
23046;SDS011;11691;51.462;6.902;2023-04-06T07:15:19;8.60;;;5.43;;
23046;SDS011;11691;51.462;6.902;2023-04-06T07:17:45;11.03;;;5.93;;
23046;SDS011;11691;51.462;6.902;2023-04-06T07:20:12;10.53;;;5.80;;
23046;SDS011;11691;51.462;6.902;2023-04-06T07:22:38;11.43;;;5.93;;
23046;SDS011;11691;51.462;6.902;2023-04-06T07:25:04;10.33;;;7.00;;
23046;SDS011;11691;51.462;6.902;2023-04-06T07:27:30;9.73;;;6.43;;
23046;SDS011;11691;51.462;6.902;2023-04-06T07:29:57;10.33;;;6.80;;
23046;SDS011;11691;51.462;6.902;2023-04-06T07:32:23;11.70;;;6.97;;
23046;SDS011;11691;51.462;6.902;2023-04-06T07:34:49;11.80;;;6.17;;
23046;SDS011;11691;51.462;6.902;2023-04-06T07:37:15;10.70;;;6.13;;
23046;SDS011;11691;51.462;6.902;2023-04-06T07:39:41;11.80;;;7.00;;
23046;SDS011;11691;51.462;6.902;2023-04-06T07:42:07;13.93;;;6.57;;
23046;SDS011;11691;51.462;6.902;2023-04-06T07:44:33;11.38;;;6.55;;
23046;SDS011;11691;51.462;6.902;2023-04-06T07:46:59;10.15;;;6.40;;
23046;SDS011;11691;51.462;6.902;2023-04-06T07:49:25;13.52;;;7.65;;
23046;SDS011;11691;51.462;6.902;2023-04-06T07:51:51;11.40;;;7.43;;
23046;SDS011;11691;51.462;6.902;2023-04-06T07:54:17;12.63;;;7.80;;
23046;SDS011;11691;51.462;6.902;2023-04-06T07:56:42;11.00;;;6.93;;
23046;SDS011;11691;51.462;6.902;2023-04-06T07:59:08;13.40;;;7.10;;
23046;SDS011;11691;51.462;6.902;2023-04-06T08:01:36;13.20;;;7.70;;
23046;SDS011;11691;51.462;6.902;2023-04-06T08:04:02;14.82;;;8.15;;
23046;SDS011;11691;51.462;6.902;2023-04-06T08:06:28;12.32;;;7.80;;
23046;SDS011;11691;51.462;6.902;2023-04-06T08:08:55;14.63;;;8.35;;
23046;SDS011;11691;51.462;6.902;2023-04-06T08:11:21;14.57;;;8.55;;
23046;SDS011;11691;51.462;6.902;2023-04-06T08:13:47;12.63;;;8.00;;
23046;SDS011;11691;51.462;6.902;2023-04-06T08:16:13;12.77;;;7.93;;
23046;SDS011;11691;51.462;6.902;2023-04-06T08:18:39;16.10;;;8.27;;
23046;SDS011;11691;51.462;6.902;2023-04-06T08:21:05;16.70;;;7.53;;
23046;SDS011;11691;51.462;6.902;2023-04-06T08:23:31;17.58;;;7.82;;
23046;SDS011;11691;51.462;6.902;2023-04-06T08:25:57;14.50;;;8.73;;
23046;SDS011;11691;51.462;6.902;2023-04-06T08:28:23;11.85;;;7.72;;
23046;SDS011;11691;51.462;6.902;2023-04-06T08:30:49;12.10;;;7.28;;
23046;SDS011;11691;51.462;6.902;2023-04-06T08:33:15;14.30;;;7.70;;
23046;SDS011;11691;51.462;6.902;2023-04-06T08:35:41;12.77;;;8.25;;
23046;SDS011;11691;51.462;6.902;2023-04-06T08:38:07;21.27;;;8.38;;
23046;SDS011;11691;51.462;6.902;2023-04-06T08:40:36;11.38;;;7.47;;
23046;SDS011;11691;51.462;6.902;2023-04-06T08:43:03;11.68;;;7.35;;
23046;SDS011;11691;51.462;6.902;2023-04-06T08:45:33;13.25;;;7.88;;
23046;SDS011;11691;51.462;6.902;2023-04-06T08:48:00;15.10;;;8.77;;
23046;SDS011;11691;51.462;6.902;2023-04-06T08:50:27;16.25;;;8.75;;
23046;SDS011;11691;51.462;6.902;2023-04-06T08:52:55;12.73;;;8.15;;
23046;SDS011;11691;51.462;6.902;2023-04-06T08:55:21;12.43;;;8.02;;
23046;SDS011;11691;51.462;6.902;2023-04-06T08:57:48;17.05;;;8.23;;
23046;SDS011;11691;51.462;6.902;2023-04-06T09:00:14;13.38;;;7.72;;
23046;SDS011;11691;51.462;6.902;2023-04-06T09:02:42;12.45;;;7.75;;
23046;SDS011;11691;51.462;6.902;2023-04-06T09:05:10;12.40;;;7.80;;
23046;SDS011;11691;51.462;6.902;2023-04-06T09:07:36;13.52;;;8.05;;
23046;SDS011;11691;51.462;6.902;2023-04-06T09:10:03;14.02;;;8.48;;
23046;SDS011;11691;51.462;6.902;2023-04-06T09:12:30;13.65;;;8.45;;
23046;SDS011;11691;51.462;6.902;2023-04-06T09:14:56;14.52;;;8.40;;
23046;SDS011;11691;51.462;6.902;2023-04-06T09:17:23;14.82;;;8.77;;
23046;SDS011;11691;51.462;6.902;2023-04-06T09:19:50;15.52;;;8.65;;
23046;SDS011;11691;51.462;6.902;2023-04-06T09:22:16;16.75;;;8.80;;
23046;SDS011;11691;51.462;6.902;2023-04-06T09:24:46;12.48;;;8.48;;
23046;SDS011;11691;51.462;6.902;2023-04-06T09:27:12;14.60;;;8.85;;
23046;SDS011;11691;51.462;6.902;2023-04-06T09:29:39;16.85;;;9.38;;
23046;SDS011;11691;51.462;6.902;2023-04-06T09:32:06;17.80;;;8.88;;
23046;SDS011;11691;51.462;6.902;2023-04-06T09:34:32;15.48;;;8.90;;
23046;SDS011;11691;51.462;6.902;2023-04-06T09:36:59;13.32;;;8.95;;
23046;SDS011;11691;51.462;6.902;2023-04-06T09:39:25;16.60;;;8.90;;
23046;SDS011;11691;51.462;6.902;2023-04-06T09:41:51;13.85;;;9.15;;
23046;SDS011;11691;51.462;6.902;2023-04-06T09:44:18;15.35;;;9.18;;
23046;SDS011;11691;51.462;6.902;2023-04-06T09:46:45;14.68;;;9.02;;
23046;SDS011;11691;51.462;6.902;2023-04-06T09:49:11;15.38;;;9.10;;
23046;SDS011;11691;51.462;6.902;2023-04-06T09:51:41;17.50;;;9.35;;
23046;SDS011;11691;51.462;6.902;2023-04-06T09:54:12;13.70;;;9.18;;
23046;SDS011;11691;51.462;6.902;2023-04-06T09:59:21;16.95;;;9.77;;
23046;SDS011;11691;51.462;6.902;2023-04-06T10:01:50;14.95;;;9.82;;
23046;SDS011;11691;51.462;6.902;2023-04-06T10:06:55;15.18;;;9.48;;
23046;SDS011;11691;51.462;6.902;2023-04-06T10:09:22;16.95;;;9.98;;
23046;SDS011;11691;51.462;6.902;2023-04-06T10:11:50;16.30;;;9.63;;
23046;SDS011;11691;51.462;6.902;2023-04-06T10:14:16;15.90;;;9.95;;
23046;SDS011;11691;51.462;6.902;2023-04-06T10:16:42;13.40;;;9.05;;
23046;SDS011;11691;51.462;6.902;2023-04-06T10:19:10;18.05;;;9.77;;
23046;SDS011;11691;51.462;6.902;2023-04-06T10:21:38;15.55;;;9.35;;
23046;SDS011;11691;51.462;6.902;2023-04-06T10:24:09;14.77;;;9.13;;
23046;SDS011;11691;51.462;6.902;2023-04-06T10:26:35;16.35;;;9.68;;
23046;SDS011;11691;51.462;6.902;2023-04-06T10:29:05;15.57;;;9.85;;
23046;SDS011;11691;51.462;6.902;2023-04-06T10:31:31;17.52;;;10.20;;
23046;SDS011;11691;51.462;6.902;2023-04-06T10:33:58;14.48;;;9.98;;
23046;SDS011;11691;51.462;6.902;2023-04-06T10:36:26;20.00;;;10.30;;
23046;SDS011;11691;51.462;6.902;2023-04-06T10:38:53;19.13;;;9.73;;
23046;SDS011;11691;51.462;6.902;2023-04-06T10:41:20;15.48;;;9.50;;
23046;SDS011;11691;51.462;6.902;2023-04-06T10:43:54;17.73;;;9.35;;
23046;SDS011;11691;51.462;6.902;2023-04-06T10:46:24;18.55;;;10.02;;
23046;SDS011;11691;51.462;6.902;2023-04-06T10:48:50;15.98;;;9.55;;
23046;SDS011;11691;51.462;6.902;2023-04-06T10:51:17;15.85;;;9.90;;
23046;SDS011;11691;51.462;6.902;2023-04-06T10:53:44;17.33;;;10.52;;
23046;SDS011;11691;51.462;6.902;2023-04-06T10:56:14;16.70;;;10.13;;
23046;SDS011;11691;51.462;6.902;2023-04-06T10:58:50;15.63;;;9.38;;
23046;SDS011;11691;51.462;6.902;2023-04-06T11:01:21;15.25;;;9.57;;
23046;SDS011;11691;51.462;6.902;2023-04-06T11:03:50;14.55;;;9.57;;
23046;SDS011;11691;51.462;6.902;2023-04-06T11:06:21;16.45;;;10.13;;
23046;SDS011;11691;51.462;6.902;2023-04-06T11:08:47;17.60;;;10.70;;
23046;SDS011;11691;51.462;6.902;2023-04-06T11:11:14;15.63;;;10.18;;
23046;SDS011;11691;51.462;6.902;2023-04-06T11:13:42;15.25;;;9.68;;
23046;SDS011;11691;51.462;6.902;2023-04-06T11:16:16;18.83;;;10.18;;
23046;SDS011;11691;51.462;6.902;2023-04-06T11:18:55;19.17;;;10.23;;
23046;SDS011;11691;51.462;6.902;2023-04-06T11:21:37;18.42;;;9.80;;
23046;SDS011;11691;51.462;6.902;2023-04-06T11:26:42;19.10;;;9.93;;
23046;SDS011;11691;51.462;6.902;2023-04-06T11:29:09;17.65;;;10.65;;
23046;SDS011;11691;51.462;6.902;2023-04-06T11:31:42;18.63;;;9.88;;
23046;SDS011;11691;51.462;6.902;2023-04-06T11:34:12;19.15;;;9.57;;
23046;SDS011;11691;51.462;6.902;2023-04-06T11:36:42;19.65;;;9.60;;
23046;SDS011;11691;51.462;6.902;2023-04-06T11:39:10;21.85;;;10.48;;
23046;SDS011;11691;51.462;6.902;2023-04-06T11:41:39;19.27;;;9.95;;
23046;SDS011;11691;51.462;6.902;2023-04-06T11:44:06;19.67;;;10.32;;
23046;SDS011;11691;51.462;6.902;2023-04-06T11:46:32;16.52;;;10.38;;
23046;SDS011;11691;51.462;6.902;2023-04-06T11:48:58;18.92;;;9.93;;
23046;SDS011;11691;51.462;6.902;2023-04-06T11:51:25;18.88;;;9.82;;
23046;SDS011;11691;51.462;6.902;2023-04-06T11:53:51;19.45;;;9.68;;
23046;SDS011;11691;51.462;6.902;2023-04-06T11:56:27;20.27;;;10.30;;
23046;SDS011;11691;51.462;6.902;2023-04-06T11:58:57;20.55;;;10.93;;
23046;SDS011;11691;51.462;6.902;2023-04-06T12:01:25;17.70;;;10.13;;
23046;SDS011;11691;51.462;6.902;2023-04-06T12:03:51;24.30;;;12.18;;
23046;SDS011;11691;51.462;6.902;2023-04-06T12:06:18;19.58;;;11.15;;
23046;SDS011;11691;51.462;6.902;2023-04-06T12:08:44;20.73;;;10.07;;
23046;SDS011;11691;51.462;6.902;2023-04-06T12:11:11;19.85;;;11.13;;
23046;SDS011;11691;51.462;6.902;2023-04-06T12:13:37;20.52;;;10.80;;
23046;SDS011;11691;51.462;6.902;2023-04-06T12:16:02;19.17;;;10.68;;
23046;SDS011;11691;51.462;6.902;2023-04-06T12:18:29;20.70;;;11.40;;
23046;SDS011;11691;51.462;6.902;2023-04-06T12:20:55;21.02;;;11.82;;
23046;SDS011;11691;51.462;6.902;2023-04-06T12:23:20;21.27;;;11.20;;
23046;SDS011;11691;51.462;6.902;2023-04-06T12:25:47;19.17;;;11.30;;
23046;SDS011;11691;51.462;6.902;2023-04-06T12:28:13;20.75;;;10.93;;
23046;SDS011;11691;51.462;6.902;2023-04-06T12:30:39;17.63;;;11.50;;
23046;SDS011;11691;51.462;6.902;2023-04-06T12:33:06;22.38;;;10.48;;
23046;SDS011;11691;51.462;6.902;2023-04-06T12:35:36;22.75;;;11.52;;
23046;SDS011;11691;51.462;6.902;2023-04-06T12:38:02;20.75;;;11.43;;
23046;SDS011;11691;51.462;6.902;2023-04-06T12:40:28;20.80;;;11.35;;
23046;SDS011;11691;51.462;6.902;2023-04-06T12:42:54;18.90;;;10.73;;
23046;SDS011;11691;51.462;6.902;2023-04-06T12:45:20;20.95;;;9.88;;
23046;SDS011;11691;51.462;6.902;2023-04-06T12:47:46;17.70;;;10.27;;
23046;SDS011;11691;51.462;6.902;2023-04-06T12:50:12;19.40;;;10.35;;
23046;SDS011;11691;51.462;6.902;2023-04-06T12:52:38;18.73;;;10.65;;
23046;SDS011;11691;51.462;6.902;2023-04-06T12:55:04;19.60;;;10.93;;
23046;SDS011;11691;51.462;6.902;2023-04-06T12:57:31;20.42;;;10.48;;
23046;SDS011;11691;51.462;6.902;2023-04-06T12:59:57;18.52;;;10.02;;
23046;SDS011;11691;51.462;6.902;2023-04-06T13:02:23;19.38;;;9.55;;
23046;SDS011;11691;51.462;6.902;2023-04-06T13:04:49;17.17;;;10.05;;
23046;SDS011;11691;51.462;6.902;2023-04-06T13:07:16;15.25;;;9.13;;
23046;SDS011;11691;51.462;6.902;2023-04-06T13:09:41;17.92;;;9.50;;
23046;SDS011;11691;51.462;6.902;2023-04-06T13:12:07;16.25;;;9.27;;
23046;SDS011;11691;51.462;6.902;2023-04-06T13:14:33;13.45;;;8.13;;
23046;SDS011;11691;51.462;6.902;2023-04-06T13:16:59;15.48;;;8.55;;
23046;SDS011;11691;51.462;6.902;2023-04-06T13:19:26;14.00;;;7.55;;
23046;SDS011;11691;51.462;6.902;2023-04-06T13:21:52;18.08;;;9.73;;
23046;SDS011;11691;51.462;6.902;2023-04-06T13:24:18;15.05;;;8.80;;
23046;SDS011;11691;51.462;6.902;2023-04-06T13:26:44;15.18;;;9.43;;
23046;SDS011;11691;51.462;6.902;2023-04-06T13:29:10;14.23;;;9.48;;
23046;SDS011;11691;51.462;6.902;2023-04-06T13:31:37;15.00;;;8.88;;
23046;SDS011;11691;51.462;6.902;2023-04-06T13:34:03;14.05;;;8.65;;
23046;SDS011;11691;51.462;6.902;2023-04-06T13:36:30;12.80;;;8.20;;
23046;SDS011;11691;51.462;6.902;2023-04-06T13:38:57;17.70;;;7.80;;
23046;SDS011;11691;51.462;6.902;2023-04-06T13:41:23;15.90;;;7.43;;
23046;SDS011;11691;51.462;6.902;2023-04-06T13:43:50;10.90;;;6.80;;
23046;SDS011;11691;51.462;6.902;2023-04-06T13:46:16;10.73;;;6.65;;
23046;SDS011;11691;51.462;6.902;2023-04-06T13:48:43;12.85;;;6.72;;
23046;SDS011;11691;51.462;6.902;2023-04-06T13:53:35;11.13;;;6.93;;
23046;SDS011;11691;51.462;6.902;2023-04-06T13:56:01;12.40;;;6.75;;
23046;SDS011;11691;51.462;6.902;2023-04-06T13:58:27;11.82;;;6.97;;
23046;SDS011;11691;51.462;6.902;2023-04-06T14:00:53;11.45;;;6.95;;
23046;SDS011;11691;51.462;6.902;2023-04-06T14:03:19;12.18;;;7.30;;
23046;SDS011;11691;51.462;6.902;2023-04-06T14:05:45;12.05;;;7.35;;
23046;SDS011;11691;51.462;6.902;2023-04-06T14:08:11;11.52;;;6.65;;
23046;SDS011;11691;51.462;6.902;2023-04-06T14:10:38;10.48;;;6.30;;
23046;SDS011;11691;51.462;6.902;2023-04-06T14:13:05;11.27;;;6.78;;
23046;SDS011;11691;51.462;6.902;2023-04-06T14:15:31;9.60;;;6.13;;
23046;SDS011;11691;51.462;6.902;2023-04-06T14:17:57;12.13;;;6.13;;
23046;SDS011;11691;51.462;6.902;2023-04-06T14:20:23;12.57;;;6.47;;
23046;SDS011;11691;51.462;6.902;2023-04-06T14:22:49;10.50;;;6.53;;
23046;SDS011;11691;51.462;6.902;2023-04-06T14:25:17;11.80;;;7.35;;
23046;SDS011;11691;51.462;6.902;2023-04-06T14:27:43;13.02;;;6.63;;
23046;SDS011;11691;51.462;6.902;2023-04-06T14:30:09;11.00;;;6.90;;
23046;SDS011;11691;51.462;6.902;2023-04-06T14:32:36;11.55;;;7.03;;
23046;SDS011;11691;51.462;6.902;2023-04-06T14:35:02;11.73;;;7.70;;
23046;SDS011;11691;51.462;6.902;2023-04-06T14:37:31;10.00;;;7.35;;
23046;SDS011;11691;51.462;6.902;2023-04-06T14:39:57;12.35;;;7.43;;
23046;SDS011;11691;51.462;6.902;2023-04-06T14:42:22;11.60;;;7.65;;